• Join FlightAware (Why Join?)
  • Login
  • US Flag 
01:40AM EDT


 

Airport Tracker/Info


-or-


 

Live Flight TrackerFlight Track Log ✈ SWA550 ✈ 10-May-2013 ✈ KSAN - KPHX

Flight Track Log - Related Links

Times and Time Zones

All times are in EDT time to prevent confusion due to time zone crossing. See the SWA550 flight status page for this flight to view local times or setup timezone preferences in your user account.

Time Position Orientation Groundspeed Altitude Reporting Facility
EDT Latitude Longitude Course Direction KTS MPH feet Rate Location/Type
02:35PM 32.7458 -117.2383 287° West 173 199 1,700  Level Los Angeles Center
02:36PM 32.7436 -117.3083 268° West 220 253 4,200 2,700 Climbing Los Angeles Center
02:37PM 32.6906 -117.3569 218° Southwest 235 270 7,300 2,820 Climbing Los Angeles Center
02:38PM 32.6447 -117.2947 131° Southeast 267 307 10,100 2,820 Climbing Los Angeles Center
02:39PM 32.6322 -117.1747 97° East 294 338 13,200 2,820 Climbing Los Angeles Center
02:40PM 32.6203 -117.0631 97° East 318 366 16,000 2,400 Climbing Los Angeles Center
02:41PM 32.6125 -116.9447 94° East 343 395 18,200 2,280 Climbing Los Angeles Center
02:42PM 32.6264 -116.8231 82° East 363 418 20,800 2,160 Climbing Los Angeles Center
02:43PM 32.6386 -116.6997 83° East 371 427 22,700 2,160 Climbing Los Angeles Center
02:44PM 32.6531 -116.5428 84° East 395 455 25,300 1,980 Climbing Los Angeles Center
02:45PM 32.6647 -116.4122 84° East 403 464 26,900 780 Climbing Los Angeles Center
02:46PM 32.6781 -116.2786 83° East 413 475 27,000  Climbing Los Angeles Center
02:47PM 32.6911 -116.1447 83° East 414 476 27,000  Level Los Angeles Center
02:48PM 32.7061 -115.9836 84° East 412 474 27,000  Level Los Angeles Center
02:49PM 32.7181 -115.8486 84° East 412 474 27,000  Level Los Angeles Center
02:50PM 32.7306 -115.7142 84° East 413 475 27,000  Level Los Angeles Center
02:51PM 32.7428 -115.5800 84° East 410 472 27,000  Level Los Angeles Center
02:52PM 32.7511 -115.4461 86° East 410 472 27,000  Level Los Angeles Center
02:53PM 32.7531 -115.3117 89° East 408 470 27,000  Level Los Angeles Center
02:55PM 32.7558 -115.1522 89° East 404 465 27,000  Level Los Angeles Center
02:56PM 32.7586 -115.0203 89° East 401 461 27,000  Level Los Angeles Center
02:57PM 32.7606 -114.8892 89° East 399 459 27,000  Level Los Angeles Center
02:58PM 32.7633 -114.7586 89° East 397 457 27,000  Level Los Angeles Center
02:59PM 32.7664 -114.6286 88° East 395 455 27,000 -120 Level Los Angeles Center
03:00PM 32.7681 -114.4736 89° East 392 451 26,800 -600 Descending Los Angeles Center
03:01PM 32.7694 -114.3431 89° East 394 453 25,800 -900 Descending Los Angeles Center
03:02PM 32.7750 -114.2147 87° East 391 450 25,000 -420 Descending Los Angeles Center
03:03PM 32.7767 -114.0878 89° East 387 445 25,000  Level Los Angeles Center
03:04PM 32.7792 -113.9597 89° East 389 448 25,000  Level Los Angeles Center
03:05PM 32.7958 -113.8358 81° East 383 441 25,000  Level Los Angeles Center
03:06PM 32.8200 -113.6861 79° East 383 441 25,000  Level Los Angeles Center
03:07PM 32.8969 -113.5789 49° Northeast 379 436 25,000 -120 Level Albuquerque Center
03:08PM 32.9686 -113.4836 48° Northeast 383 441 24,800 -1,320 Descending Albuquerque Center
03:09PM 33.0369 -113.3894 49° Northeast 378 435 22,400 -1,380 Descending Albuquerque Center
03:10PM 33.1033 -113.2978 49° Northeast 368 423 22,000 -240 Descending Albuquerque Center
03:11PM 33.1453 -113.1875 66° East 365 420 22,000 -1,080 Level Albuquerque Center
03:12PM 33.1944 -113.0539 66° East 365 420 19,800 -2,160 Descending Albuquerque Center
03:13PM 33.2339 -112.9458 66° East 359 413 17,600 -1,860 Descending Albuquerque Center
03:14PM 33.2717 -112.8425 66° East 346 398 16,000 -840 Descending Albuquerque Center
03:15PM 33.2811 -112.7425 84° East 313 360 15,900 -120 Descending Albuquerque Center
03:16PM 33.2842 -112.6403 88° East 309 356 15,800 -1,080 Descending Albuquerque Center
03:17PM 33.2869 -112.5264 88° East 305 351 13,800 -1,800 Descending Albuquerque Center
03:18PM 33.2897 -112.4289 88° East 299 344 12,100 -1,440 Descending Albuquerque Center
03:19PM 33.2925 -112.3333 88° East 293 337 10,900 -960 Descending Albuquerque Center
03:21PM 33.3003 -112.2383 84° East 291 335 10,200 -900 Descending Albuquerque Center
03:22PM 33.3067 -112.1478 85° East 281 323 9,100 -720 Descending Albuquerque Center
03:23PM 33.3181 -112.0653 81° East 265 305 8,800 -1,020 Descending Albuquerque Center
03:24PM 33.3419 -111.9700 73° East 253 291 7,100 -1,020 Descending Albuquerque Center
03:25PM 33.3453 -111.8908 87° East 242 278 6,700 -840 Descending Albuquerque Center
03:26PM 33.3453 -111.8208 90° East 217 250 5,400 -1,140 Descending Albuquerque Center
03:27PM 33.3625 -111.7589 72° East 216 249 4,400 -720 Descending Albuquerque Center
03:28PM 33.4142 -111.7708 349° North 211 243 4,000 -300 Descending Albuquerque Center
03:29PM 33.4294 -111.8311 287° West 199 229 3,900 -720 Descending Albuquerque Center
03:30PM 33.4297 -111.9044 270° West 188 216 2,600 -1,080 Descending Albuquerque Center
03:31PM 33.4297 -111.9583 270° West 178 205 1,800 -540 Descending Albuquerque Center
03:32PM 33.4311 -112.0044 272° West 170 196 1,500 -300 Descending Albuquerque Center